Time;durP1;ratioP1;P1;durP2;ratioP2;P2;SDS_P1;SDS_P2;PMS_P1;PMS_P2;Temp;Humidity;BMP_temperature;BMP_pressure;BME280_temperature;BME280_humidity;BME280_pressure;Samples;Min_cycle;Max_cycle;Signal;HPM_P1;HPM_P2
2022/03/08 00:03:10;;;;;;;8.38;7.60;;;;;;;-2.22;100.00;99199.44;10298078;28;20472;-61
2022/03/08 00:08:14;;;;;;;24.83;18.30;;;;;;;-2.25;100.00;99204.00;10305198;28;20153;-60
2022/03/08 00:13:17;;;;;;;12.60;10.43;;;;;;;-2.29;100.00;99199.75;10287998;28;20515;-60
2022/03/08 00:18:22;;;;;;;9.88;8.88;;;;;;;-2.32;100.00;99195.47;10291714;28;20053;-60
2022/03/08 00:23:25;;;;;;;8.95;8.15;;;;;;;-2.34;100.00;99192.88;10310414;28;20117;-61
2022/03/08 00:28:29;;;;;;;10.43;9.32;;;;;;;-2.40;100.00;99189.59;10292220;28;20043;-61
2022/03/08 00:33:34;;;;;;;10.60;8.60;;;;;;;-2.41;100.00;99190.56;10299335;28;20138;-60
2022/03/08 00:38:38;;;;;;;9.43;8.52;;;;;;;-2.43;100.00;99179.19;10291363;28;20050;-58
2022/03/08 00:43:42;;;;;;;8.98;8.07;;;;;;;-2.49;100.00;99178.50;10295251;28;20470;-60
2022/03/08 00:48:50;;;;;;;9.63;8.63;;;;;;;-2.51;100.00;99167.16;10285800;28;20042;-60
2022/03/08 00:53:54;;;;;;;9.10;8.20;;;;;;;-2.55;100.00;99168.22;10290961;28;20153;-60
2022/03/08 00:58:57;;;;;;;9.63;8.63;;;;;;;-2.56;100.00;99158.56;10295574;28;20130;-60
2022/03/08 01:04:01;;;;;;;14.88;11.73;;;;;;;-2.67;100.00;99164.25;10281809;28;20137;-60
2022/03/08 01:09:04;;;;;;;13.75;12.10;;;;;;;-2.69;100.00;99160.81;10290440;28;20431;-60
2022/03/08 01:14:09;;;;;;;9.63;8.73;;;;;;;-2.68;100.00;99154.63;10291690;28;20077;-60
2022/03/08 01:19:13;;;;;;;9.13;8.23;;;;;;;-2.70;100.00;99145.06;10289948;28;20078;-59
2022/03/08 01:24:17;;;;;;;10.27;9.27;;;;;;;-2.73;100.00;99140.75;10292189;28;20118;-59
2022/03/08 01:29:19;;;;;;;10.55;9.52;;;;;;;-2.75;100.00;99131.16;10305693;28;20117;-57
2022/03/08 01:34:24;;;;;;;10.48;9.50;;;;;;;-2.79;100.00;99133.94;10294046;28;20487;-59
2022/03/08 01:39:27;;;;;;;10.57;9.55;;;;;;;-2.76;100.00;99134.75;10308144;28;20038;-57
2022/03/08 01:44:31;;;;;;;10.38;9.43;;;;;;;-2.77;100.00;99138.31;10310099;28;20114;-57
2022/03/08 01:49:36;;;;;;;9.77;8.77;;;;;;;-2.77;100.00;99127.75;10309486;28;20507;-59
2022/03/08 01:54:39;;;;;;;10.40;9.50;;;;;;;-2.80;100.00;99121.69;10315815;28;20383;-59
2022/03/08 01:59:42;;;;;;;9.93;8.82;;;;;;;-2.81;100.00;99127.88;10312209;28;20039;-57
2022/03/08 02:04:48;;;;;;;9.98;9.00;;;;;;;-2.86;100.00;99121.91;10310884;28;20038;-57
2022/03/08 02:09:51;;;;;;;10.40;9.32;;;;;;;-2.90;100.00;99122.97;10313808;28;20069;-59
2022/03/08 02:14:54;;;;;;;11.10;9.95;;;;;;;-2.93;100.00;99117.78;10309475;28;20073;-57
2022/03/08 02:19:58;;;;;;;10.07;9.10;;;;;;;-2.97;100.00;99122.34;10311600;28;20050;-60
2022/03/08 02:25:03;;;;;;;8.75;7.95;;;;;;;-2.98;100.00;99111.81;10308924;28;20045;-59
2022/03/08 02:30:07;;;;;;;9.55;8.65;;;;;;;-3.03;100.00;99100.63;10311019;28;20137;-58
2022/03/08 02:35:12;;;;;;;9.55;8.57;;;;;;;-3.11;100.00;99091.22;10308985;28;20081;-59
2022/03/08 02:40:19;;;;;;;10.38;8.73;;;;;;;-3.15;100.00;99096.66;10306756;28;20070;-60
2022/03/08 02:45:22;;;;;;;9.80;8.90;;;;;;;-3.20;100.00;99088.09;10306767;28;20039;-61
2022/03/08 02:50:25;;;;;;;10.20;9.20;;;;;;;-3.25;100.00;99088.25;10310288;28;20081;-60
2022/03/08 02:55:32;;;;;;;10.05;8.85;;;;;;;-3.30;100.00;99087.56;10302392;28;20038;-60
2022/03/08 03:00:36;;;;;;;10.30;9.30;;;;;;;-3.35;100.00;99087.72;10310760;28;20105;-59
2022/03/08 03:05:39;;;;;;;11.07;10.05;;;;;;;-3.39;100.00;99087.91;10294085;28;20077;-56
2022/03/08 03:10:43;;;;;;;11.23;10.13;;;;;;;-3.44;100.00;99093.34;10293516;28;20045;-59
2022/03/08 03:15:46;;;;;;;10.98;9.98;;;;;;;-3.46;100.00;99097.81;10298255;28;20053;-58
2022/03/08 03:20:50;;;;;;;11.20;10.02;;;;;;;-3.47;100.00;99098.72;10291232;28;20059;-57
2022/03/08 03:25:54;;;;;;;10.85;9.85;;;;;;;-3.53;100.00;99107.72;10310676;28;20042;-58
2022/03/08 03:30:58;;;;;;;11.85;10.75;;;;;;;-3.56;100.00;99115.72;10299805;28;20047;-56
2022/03/08 03:36:01;;;;;;;11.35;10.20;;;;;;;-3.58;100.00;99117.53;10296921;28;20134;-58
2022/03/08 03:41:06;;;;;;;11.10;10.10;;;;;;;-3.64;100.00;99120.41;10294871;28;20090;-58
2022/03/08 03:46:09;;;;;;;11.50;10.30;;;;;;;-3.72;100.00;99118.03;10289430;28;20042;-59
2022/03/08 03:51:12;;;;;;;10.43;9.50;;;;;;;-3.78;100.00;99111.22;10293278;28;20050;-56
2022/03/08 03:56:17;;;;;;;11.23;10.13;;;;;;;-3.81;100.00;99123.63;10293866;28;20482;-57
2022/03/08 04:01:20;;;;;;;10.70;9.70;;;;;;;-3.82;100.00;99135.06;10307819;28;20337;-57
2022/03/08 04:06:24;;;;;;;11.80;10.70;;;;;;;-3.87;100.00;99140.50;10292747;28;20050;-58
2022/03/08 04:11:28;;;;;;;12.52;11.43;;;;;;;-3.88;100.00;99138.78;10294151;28;20060;-57
2022/03/08 04:16:31;;;;;;;12.45;11.25;;;;;;;-3.88;100.00;99144.03;10293681;28;20805;-58
2022/03/08 04:21:34;;;;;;;12.70;11.40;;;;;;;-3.88;100.00;99144.03;10300558;28;20043;-59
2022/03/08 04:26:39;;;;;;;12.80;11.60;;;;;;;-3.92;100.00;99134.53;10303880;28;20042;-59
2022/03/08 04:31:42;;;;;;;13.70;12.40;;;;;;;-3.94;100.00;99134.59;10291460;28;20086;-58
2022/03/08 04:36:45;;;;;;;13.43;12.13;;;;;;;-3.94;100.00;99139.00;10299229;28;20549;-57
2022/03/08 04:41:50;;;;;;;15.65;13.07;;;;;;;-3.97;100.00;99136.47;10293286;28;20051;-58
2022/03/08 04:46:53;;;;;;;14.35;11.88;;;;;;;-3.99;100.00;99138.28;10305018;28;20507;-57
2022/03/08 04:51:56;;;;;;;14.35;13.02;;;;;;;-4.02;100.00;99124.31;10295881;28;20552;-57
2022/03/08 04:57:01;;;;;;;14.27;12.88;;;;;;;-4.05;100.00;99132.31;10310001;28;20537;-59
2022/03/08 05:02:06;;;;;;;13.32;12.13;;;;;;;-4.07;100.00;99128.91;10323334;28;20065;-59
2022/03/08 05:07:10;;;;;;;15.52;13.40;;;;;;;-4.12;100.00;99136.06;10311248;28;20532;-57
2022/03/08 05:12:15;;;;;;;13.82;12.45;;;;;;;-4.13;100.00;99131.72;10285068;28;20508;-59
2022/03/08 05:17:19;;;;;;;12.23;11.02;;;;;;;-4.16;100.00;99130.97;10292536;28;20149;-59
2022/03/08 05:22:22;;;;;;;12.10;11.00;;;;;;;-4.20;100.00;99132.84;10311860;28;20136;-57
2022/03/08 05:27:27;;;;;;;12.35;11.25;;;;;;;-4.24;100.00;99133.84;10295464;28;20109;-59
2022/03/08 05:32:30;;;;;;;13.70;12.30;;;;;;;-4.27;100.00;99131.31;10291799;28;20575;-56
2022/03/08 05:37:36;;;;;;;13.30;11.68;;;;;;;-4.30;100.00;99141.94;10292718;28;20054;-57
2022/03/08 05:42:41;;;;;;;12.68;11.48;;;;;;;-4.35;100.00;99142.09;10291076;28;20094;-58
2022/03/08 05:47:44;;;;;;;13.20;11.90;;;;;;;-4.35;100.00;99137.69;10290048;28;20069;-57
2022/03/08 05:52:47;;;;;;;14.20;12.73;;;;;;;-4.36;100.00;99140.38;10283136;28;20410;-59
2022/03/08 05:57:51;;;;;;;16.33;14.70;;;;;;;-4.32;100.00;99149.03;10288309;28;20054;-59
2022/03/08 06:02:54;;;;;;;15.23;13.55;;;;;;;-4.29;100.00;99156.81;10284314;28;20144;-59
2022/03/08 06:07:57;;;;;;;14.93;13.52;;;;;;;-4.26;100.00;99159.34;10281443;28;20047;-58
2022/03/08 06:13:02;;;;;;;16.00;14.40;;;;;;;-4.22;100.00;99155.72;10280911;28;20475;-54
2022/03/08 06:18:05;;;;;;;13.85;12.55;;;;;;;-4.19;100.00;99159.09;10294190;28;20547;-55
2022/03/08 06:23:08;;;;;;;13.95;12.65;;;;;;;-4.13;100.00;99159.81;10308014;28;20054;-60
2022/03/08 06:28:12;;;;;;;14.25;12.82;;;;;;;-4.11;100.00;99164.09;10306187;28;20039;-58
2022/03/08 06:33:15;;;;;;;13.27;11.98;;;;;;;-4.07;100.00;99171.00;10293102;28;20070;-58
2022/03/08 06:38:18;;;;;;;12.35;11.18;;;;;;;-4.05;100.00;99177.06;10294800;28;20121;-58
2022/03/08 06:43:23;;;;;;;12.65;11.50;;;;;;;-4.04;100.00;99170.88;10294453;28;20070;-61
2022/03/08 06:48:26;;;;;;;12.85;11.55;;;;;;;-4.00;100.00;99168.16;10295170;28;20330;-60
2022/03/08 06:53:29;;;;;;;13.10;11.80;;;;;;;-3.95;100.00;99176.78;10305080;28;20474;-61
2022/03/08 06:58:33;;;;;;;14.45;11.77;;;;;;;-3.92;100.00;99174.00;10290804;28;20119;-59
2022/03/08 07:03:36;;;;;;;13.50;12.10;;;;;;;-3.88;100.00;99176.47;10286856;28;20081;-63
2022/03/08 07:08:39;;;;;;;13.45;12.15;;;;;;;-3.81;100.00;99182.41;10290459;28;20043;-61
2022/03/08 07:13:43;;;;;;;14.35;12.73;;;;;;;-3.72;100.00;99181.25;10288357;28;20125;-58
2022/03/08 07:18:48;;;;;;;16.90;12.30;;;;;;;-3.65;100.00;99181.88;10293872;28;20035;-58
2022/03/08 07:23:51;;;;;;;14.27;12.88;;;;;;;-3.57;100.00;99180.72;10288265;28;20059;-60
2022/03/08 07:28:55;;;;;;;14.07;12.65;;;;;;;-3.48;100.00;99182.19;10293176;28;20152;-61
2022/03/08 07:33:59;;;;;;;13.30;12.10;;;;;;;-3.33;100.00;99188.66;10290605;28;20675;-58
2022/03/08 07:39:03;;;;;;;11.85;10.75;;;;;;;-3.15;100.00;99192.41;10289833;28;20118;-64
2022/03/08 07:44:07;;;;;;;11.50;10.50;;;;;;;-2.97;100.00;99196.16;10284944;28;20073;-58
2022/03/08 07:49:10;;;;;;;11.40;10.35;;;;;;;-2.81;100.00;99188.53;10285053;28;20082;-57
2022/03/08 07:54:29;;;;;;;12.57;11.38;;;;;;;-2.66;100.00;99199.41;10287490;28;20055;-58
2022/03/08 07:59:34;;;;;;;12.07;10.98;;;;;;;-2.51;100.00;99195.31;10320554;28;20117;-64
2022/03/08 08:04:37;;;;;;;11.23;10.18;;;;;;;-2.39;100.00;99202.75;10286350;28;20122;-59
2022/03/08 08:09:40;;;;;;;11.23;9.93;;;;;;;-2.22;100.00;99194.16;10291026;28;20058;-56
2022/03/08 08:14:44;;;;;;;9.90;8.90;;;;;;;-1.99;100.00;99187.09;10287709;28;20141;-60
2022/03/08 08:19:47;;;;;;;9.60;8.57;;;;;;;-1.85;100.00;99181.22;10291264;28;20416;-54
2022/03/08 08:24:51;;;;;;;11.60;8.63;;;;;;;-1.68;100.00;99172.59;10289002;28;20559;-55
2022/03/08 08:29:55;;;;;;;9.57;8.68;;;;;;;-1.53;100.00;99171.09;10283936;28;20122;-56
2022/03/08 08:34:58;;;;;;;9.70;8.70;;;;;;;-1.33;100.00;99172.84;10283433;28;20141;-57
2022/03/08 08:40:01;;;;;;;8.65;7.65;;;;;;;-1.05;100.00;99173.41;10286740;28;20429;-57
2022/03/08 08:45:08;;;;;;;7.35;6.70;;;;;;;-0.85;100.00;99175.16;10282410;28;20070;-57
2022/03/08 08:50:11;;;;;;;7.65;6.85;;;;;;;-0.62;100.00;99169.63;10283182;28;20059;-56
2022/03/08 08:55:14;;;;;;;7.97;7.18;;;;;;;-0.32;100.00;99163.84;10281268;28;20055;-56
2022/03/08 09:00:19;;;;;;;8.05;7.30;;;;;;;0.01;100.00;99158.75;10285339;28;20050;-58
2022/03/08 09:05:22;;;;;;;8.52;7.13;;;;;;;0.38;100.00;99159.53;10281356;28;20062;-57
2022/03/08 09:10:25;;;;;;;7.55;6.70;;;;;;;0.59;100.00;99158.44;10283368;28;20127;-58
2022/03/08 09:15:31;;;;;;;5.13;4.28;;;;;;;0.85;100.00;99148.25;10277773;28;20074;-59
2022/03/08 09:20:34;;;;;;;5.47;4.13;;;;;;;1.22;100.00;99146.25;10279732;28;20038;-57
2022/03/08 09:25:38;;;;;;;6.72;5.13;;;;;;;1.45;100.00;99144.13;10285205;28;20491;-56
2022/03/08 09:30:44;;;;;;;6.75;4.95;;;;;;;1.78;100.00;99144.94;10287443;28;20060;-63
2022/03/08 09:35:47;;;;;;;4.93;4.43;;;;;;;2.03;100.00;99143.53;10308746;28;20046;-58
2022/03/08 09:40:52;;;;;;;4.80;4.22;;;;;;;2.23;100.00;99135.28;10284140;28;20177;-61
2022/03/08 09:45:56;;;;;;;5.45;4.00;;;;;;;2.49;100.00;99137.31;10283480;28;20633;-61
2022/03/08 09:51:00;;;;;;;4.03;3.60;;;;;;;2.69;100.00;99134.28;10289513;28;20065;-59
2022/03/08 09:56:04;;;;;;;3.85;3.40;;;;;;;2.92;100.00;99132.88;10291249;28;20043;-57
2022/03/08 10:01:08;;;;;;;3.40;2.92;;;;;;;3.15;100.00;99135.03;10291263;28;20141;-60
2022/03/08 10:06:12;;;;;;;4.97;3.20;;;;;;;3.34;100.00;99146.28;10298466;28;20538;-63
2022/03/08 10:11:18;;;;;;;4.40;2.80;;;;;;;3.53;100.00;99145.06;10289742;28;20484;-62
2022/03/08 10:16:34;;;;;;;5.18;2.42;;;;;;;3.75;100.00;99143.69;10290544;28;20043;-58
2022/03/08 10:21:42;;;;;;;3.05;2.30;;;;;;;3.93;100.00;99138.97;10288594;28;20059;-60
2022/03/08 10:26:49;;;;;;;3.90;2.60;;;;;;;4.08;100.00;99139.75;10286477;28;20075;-61
2022/03/08 10:32:07;;;;;;;3.40;2.20;;;;;;;4.27;100.00;99132.25;10288621;28;20512;-61
2022/03/08 10:37:17;;;;;;;4.03;2.47;;;;;;;4.48;100.00;99140.56;10289738;28;20126;-60
2022/03/08 10:42:21;;;;;;;3.58;2.60;;;;;;;4.59;100.00;99129.19;10292514;28;20043;-60
2022/03/08 10:47:26;;;;;;;5.20;2.50;;;;;;;4.68;100.00;99129.50;10287483;28;20113;-60
2022/03/08 10:52:33;;;;;;;2.78;2.42;;;;;;;4.79;100.00;99116.25;10294157;28;20082;-61
2022/03/08 10:57:37;;;;;;;2.85;1.90;;;;;;;4.93;100.00;99118.81;10291180;28;20925;-63
2022/03/08 11:02:54;;;;;;;2.75;1.80;;;;;;;5.08;98.64;99110.69;10290557;28;20047;-62
2022/03/08 11:08:02;;;;;;;1.90;1.67;;;;;;;5.23;92.28;99116.75;10278095;28;20051;-62
2022/03/08 11:13:07;;;;;;;1.40;1.30;;;;;;;5.35;88.46;99117.69;10265022;28;20102;-60
2022/03/08 11:18:14;;;;;;;2.33;1.60;;;;;;;5.53;95.40;99102.09;10248579;28;20529;-64
2022/03/08 11:23:17;;;;;;;1.95;1.70;;;;;;;5.70;79.96;99090.19;10250975;28;20501;-61
2022/03/08 11:28:21;;;;;;;1.90;1.70;;;;;;;5.77;79.34;99093.25;10251370;28;20631;-62
2022/03/08 11:33:40;;;;;;;3.45;2.05;;;;;;;5.88;78.13;99095.13;10246058;28;20138;-62
2022/03/08 11:38:44;;;;;;;7.63;2.10;;;;;;;6.03;85.86;99091.34;10249785;28;20047;-62
2022/03/08 11:43:48;;;;;;;3.63;1.80;;;;;;;6.16;76.10;99081.44;10248978;28;20053;-63
2022/03/08 11:48:56;;;;;;;3.38;2.30;;;;;;;6.15;70.78;99076.16;10243962;28;20511;-63
2022/03/08 11:54:04;;;;;;;2.42;1.80;;;;;;;6.19;73.19;99072.31;10247682;28;20103;-63
2022/03/08 11:59:11;;;;;;;1.92;1.70;;;;;;;6.38;70.82;99068.19;10246738;28;20098;-64
2022/03/08 12:04:19;;;;;;;1.75;1.50;;;;;;;6.61;68.49;99085.16;10247734;28;20040;-62
2022/03/08 12:09:23;;;;;;;1.70;1.60;;;;;;;6.52;65.57;99083.22;10250366;28;20046;-62
2022/03/08 12:14:31;;;;;;;1.35;1.08;;;;;;;6.68;58.65;99080.19;10245532;28;20430;-62
2022/03/08 12:19:39;;;;;;;4.10;1.50;;;;;;;6.85;62.08;99058.28;10242901;28;20086;-62
2022/03/08 12:24:46;;;;;;;2.25;1.33;;;;;;;6.93;61.74;99065.69;10244829;28;20055;-59
2022/03/08 12:29:54;;;;;;;1.63;1.30;;;;;;;6.94;56.84;99068.25;10345680;23;20058;-69
2022/03/08 12:35:20;;;;;;;3.00;1.67;;;;;;;6.96;55.67;99060.09;10362636;28;20123;-68
2022/03/08 12:40:35;;;;;;;2.22;1.35;;;;;;;7.16;56.47;99060.31;10338504;28;20042;-68
2022/03/08 12:45:40;;;;;;;2.90;1.30;;;;;;;7.38;54.40;99062.97;10349252;28;20046;-69
2022/03/08 12:50:47;;;;;;;1.60;1.35;;;;;;;7.65;54.27;99056.31;10328436;28;20550;-68
2022/03/08 12:55:52;;;;;;;1.80;1.33;;;;;;;7.76;51.57;99054.56;10322764;28;20900;-70
2022/03/08 13:00:56;;;;;;;1.35;1.10;;;;;;;7.87;50.12;99049.16;10322902;28;20575;-68
2022/03/08 13:06:04;;;;;;;1.13;1.02;;;;;;;8.23;52.86;99047.03;10324716;28;20514;-70
2022/03/08 13:11:09;;;;;;;1.00;0.90;;;;;;;8.42;49.19;99040.06;10325176;28;20077;-68
2022/03/08 13:16:28;;;;;;;0.80;0.80;;;;;;;8.58;45.54;99027.06;10322995;28;20046;-68
2022/03/08 13:21:33;;;;;;;1.40;0.70;;;;;;;8.92;44.75;99007.13;10327232;28;20058;-69
2022/03/08 13:26:53;;;;;;;0.90;0.90;;;;;;;9.09;45.92;99019.91;10326322;28;20046;-69
2022/03/08 13:31:56;;;;;;;1.20;1.10;;;;;;;9.50;46.24;99021.69;10327941;28;20525;-68
2022/03/08 13:37:02;;;;;;;2.55;1.25;;;;;;;9.58;44.32;99007.56;10327358;28;20053;-70
2022/03/08 13:42:05;;;;;;;1.35;1.08;;;;;;;9.85;43.30;99007.69;10323784;28;20499;-68
2022/03/08 13:47:25;;;;;;;1.25;1.05;;;;;;;10.07;43.69;99003.00;10323622;28;20045;-62
2022/03/08 13:52:29;;;;;;;1.30;1.20;;;;;;;10.28;43.19;99001.97;10322510;28;20120;-66
2022/03/08 13:57:32;;;;;;;1.85;1.00;;;;;;;10.65;42.64;98990.38;10321820;28;20050;-66
2022/03/08 14:02:36;;;;;;;4.03;1.20;;;;;;;10.67;40.94;98993.78;10322934;28;20121;-69
2022/03/08 14:07:41;;;;;;;1.83;1.13;;;;;;;10.61;40.37;98983.63;10319406;28;20491;-65
2022/03/08 14:12:44;;;;;;;1.00;1.00;;;;;;;10.73;39.64;98968.09;10322326;28;20428;-68
2022/03/08 14:17:49;;;;;;;1.55;1.00;;;;;;;10.75;39.13;98972.38;10349586;28;20133;-66
2022/03/08 14:23:02;;;;;;;2.78;1.15;;;;;;;10.90;38.08;98959.22;10337391;28;20081;-67
2022/03/08 14:28:05;;;;;;;2.60;1.10;;;;;;;11.22;38.80;98967.84;10325443;28;20465;-64
2022/03/08 14:33:09;;;;;;;1.65;1.05;;;;;;;11.55;39.42;98960.06;10329630;28;20054;-62
2022/03/08 14:38:17;;;;;;;1.17;1.10;;;;;;;11.82;37.07;98961.84;10330647;28;20065;-69
2022/03/08 14:43:20;;;;;;;1.13;1.08;;;;;;;11.98;36.53;98963.84;10326985;28;20050;-68
2022/03/08 14:48:23;;;;;;;2.95;1.20;;;;;;;12.14;37.13;98959.56;10326292;28;20054;-66
2022/03/08 14:53:27;;;;;;;3.90;1.20;;;;;;;12.14;38.96;98964.97;10339181;28;20303;-67
2022/03/08 14:58:30;;;;;;;3.80;1.20;;;;;;;12.15;37.49;98961.28;10328066;28;20070;-66
2022/03/08 15:03:33;;;;;;;1.40;1.30;;;;;;;12.24;38.57;98960.31;10326249;28;20622;-67
2022/03/08 15:08:38;;;;;;;2.30;1.25;;;;;;;12.31;37.62;98945.16;10327366;28;20038;-67
2022/03/08 15:13:43;;;;;;;3.20;1.60;;;;;;;12.17;37.69;98943.06;10335504;28;20089;-66
2022/03/08 15:18:46;;;;;;;3.28;1.77;;;;;;;12.36;38.56;98944.66;10327286;28;20074;-65
2022/03/08 15:23:51;;;;;;;1.50;1.40;;;;;;;12.38;39.22;98947.22;10328744;28;21345;-66
2022/03/08 15:28:54;;;;;;;2.42;1.50;;;;;;;12.56;38.66;98939.88;10327603;28;20129;-67
2022/03/08 15:33:57;;;;;;;1.30;1.20;;;;;;;12.48;37.44;98939.84;10327683;28;20124;-67
2022/03/08 15:39:01;;;;;;;1.40;1.30;;;;;;;12.45;39.10;98951.84;10326803;28;20133;-68
2022/03/08 15:44:05;;;;;;;2.47;1.20;;;;;;;12.46;38.31;98947.28;10321940;28;20058;-67
2022/03/08 15:49:08;;;;;;;1.33;1.20;;;;;;;12.44;38.14;98954.69;10335292;28;20042;-67
2022/03/08 15:54:13;;;;;;;1.40;1.30;;;;;;;12.20;37.73;98964.34;10324975;28;20120;-67
2022/03/08 15:59:16;;;;;;;1.60;1.38;;;;;;;11.96;38.40;98963.13;10327763;28;20054;-67
2022/03/08 16:04:19;;;;;;;2.80;1.60;;;;;;;11.85;38.52;98960.66;10348187;28;20129;-69
2022/03/08 16:09:23;;;;;;;1.80;1.40;;;;;;;11.43;39.54;98955.91;10338739;28;20573;-68
2022/03/08 16:14:27;;;;;;;2.90;1.40;;;;;;;11.07;40.89;98954.88;10329671;28;20050;-69
2022/03/08 16:19:31;;;;;;;1.52;1.27;;;;;;;10.79;41.11;98957.56;10327387;28;20128;-68
2022/03/08 16:24:36;;;;;;;2.00;1.42;;;;;;;10.37;41.63;98952.63;10324956;28;20082;-69
2022/03/08 16:29:39;;;;;;;2.75;1.60;;;;;;;9.96;42.15;98963.63;10326145;28;20152;-69
2022/03/08 16:34:42;;;;;;;1.95;1.50;;;;;;;9.40;43.47;98966.06;10333811;28;20576;-70
2022/03/08 16:39:46;;;;;;;1.63;1.48;;;;;;;9.03;45.00;98965.84;10326076;28;20503;-69
2022/03/08 16:44:49;;;;;;;1.48;1.38;;;;;;;8.61;45.80;98967.72;10321781;28;20566;-67
2022/03/08 16:49:54;;;;;;;1.83;1.30;;;;;;;8.23;46.40;98963.81;10325171;28;20042;-67
2022/03/08 16:54:58;;;;;;;1.45;1.35;;;;;;;7.82;47.16;98974.44;10345593;28;20129;-67
2022/03/08 17:00:03;;;;;;;3.25;1.63;;;;;;;7.35;47.65;98981.94;10352351;28;20413;-68
2022/03/08 17:05:08;;;;;;;3.05;1.30;;;;;;;6.90;48.12;98985.56;10342160;28;20053;-69
2022/03/08 17:10:12;;;;;;;1.50;1.33;;;;;;;6.54;49.21;98987.53;10345138;28;20042;-67
2022/03/08 17:15:15;;;;;;;2.20;1.50;;;;;;;6.16;49.62;99002.97;10323864;28;20145;-65
2022/03/08 17:20:21;;;;;;;3.88;1.60;;;;;;;5.82;50.62;98998.34;10326978;28;21374;-66
2022/03/08 17:25:31;;;;;;;3.07;1.70;;;;;;;5.61;51.58;99005.31;10327678;28;20053;-66
2022/03/08 17:30:34;;;;;;;2.50;2.00;;;;;;;5.37;52.40;99006.19;10344994;28;20046;-65
2022/03/08 17:35:38;;;;;;;2.92;1.75;;;;;;;5.19;52.93;99005.72;10354610;28;20058;-64
2022/03/08 17:40:42;;;;;;;5.75;1.80;;;;;;;5.08;53.89;99006.53;10333742;28;20069;-65
2022/03/08 17:46:05;;;;;;;2.03;1.80;;;;;;;4.92;54.71;99012.13;10336542;28;20052;-68
2022/03/08 17:51:11;;;;;;;1.88;1.67;;;;;;;4.82;55.10;99022.59;10327475;28;20301;-68
2022/03/08 17:56:16;;;;;;;2.00;1.80;;;;;;;4.69;56.07;99011.09;10332491;28;20509;-68
2022/03/08 18:01:19;;;;;;;3.88;1.90;;;;;;;4.57;56.76;99018.16;10337731;28;20082;-63
2022/03/08 18:06:25;;;;;;;2.47;1.90;;;;;;;4.39;58.42;99018.47;10337538;28;20054;-70
2022/03/08 18:11:30;;;;;;;3.20;2.00;;;;;;;4.29;59.71;99017.41;10329589;28;20637;-68
2022/03/08 18:16:33;;;;;;;2.70;1.95;;;;;;;4.15;61.32;99024.56;10344411;28;20052;-66
2022/03/08 18:21:36;;;;;;;2.75;2.05;;;;;;;4.10;62.64;99031.16;10347077;28;20050;-72
2022/03/08 18:26:41;;;;;;;2.28;1.92;;;;;;;3.94;64.36;99032.19;10349630;28;20064;-65
2022/03/08 18:31:44;;;;;;;4.32;1.90;;;;;;;3.75;67.61;99037.94;10345641;28;20128;-64
2022/03/08 18:36:48;;;;;;;3.60;1.83;;;;;;;3.60;69.31;99033.63;10347352;28;20042;-67
2022/03/08 18:41:52;;;;;;;3.72;1.85;;;;;;;3.43;71.79;99046.25;10342407;28;20569;-60
2022/03/08 18:46:56;;;;;;;3.85;2.03;;;;;;;3.42;73.06;99041.88;10354948;28;20591;-65
2022/03/08 18:51:59;;;;;;;2.95;2.28;;;;;;;3.35;74.27;99045.91;10346316;28;20384;-66
2022/03/08 18:57:04;;;;;;;2.60;2.00;;;;;;;3.28;75.20;99056.09;10335913;28;20498;-72
2022/03/08 19:02:13;;;;;;;4.33;2.13;;;;;;;3.26;75.34;99052.66;10344866;28;20046;-72
2022/03/08 19:07:16;;;;;;;2.00;1.75;;;;;;;3.26;77.51;99062.47;10345312;28;20041;-67
2022/03/08 19:12:21;;;;;;;2.20;2.00;;;;;;;3.19;77.73;99064.69;10342020;28;20050;-67
2022/03/08 19:17:25;;;;;;;2.95;2.08;;;;;;;3.17;79.57;99063.91;10340970;28;20038;-67
2022/03/08 19:22:28;;;;;;;3.80;2.00;;;;;;;3.12;81.05;99056.22;10358807;28;20038;-69
2022/03/08 19:27:33;;;;;;;3.88;2.40;;;;;;;3.08;82.83;99063.56;10342774;28;20093;-69
2022/03/08 19:32:37;;;;;;;2.80;2.40;;;;;;;3.05;84.50;99050.44;10349063;23;20082;-67
2022/03/08 19:37:45;;;;;;;2.63;2.08;;;;;;;3.03;87.05;99063.00;10313601;28;20054;-69
2022/03/08 19:42:50;;;;;;;2.75;2.10;;;;;;;2.97;89.95;99060.72;10294287;28;20053;-67
2022/03/08 19:47:54;;;;;;;2.95;2.05;;;;;;;2.92;91.46;99054.81;10290732;28;20401;-68
2022/03/08 19:52:58;;;;;;;2.15;1.85;;;;;;;2.87;93.95;99056.94;10292962;28;20126;-65
2022/03/08 19:58:04;;;;;;;3.85;2.08;;;;;;;2.78;96.46;99053.88;10285542;28;20388;-67
2022/03/08 20:03:08;;;;;;;2.47;1.90;;;;;;;2.64;99.55;99045.06;10297188;28;20038;-62
2022/03/08 20:08:13;;;;;;;2.33;1.88;;;;;;;2.51;100.00;99047.66;10289411;28;20549;-61
2022/03/08 20:13:18;;;;;;;2.45;1.90;;;;;;;2.43;100.00;99048.94;10287057;28;20134;-64
2022/03/08 20:18:21;;;;;;;2.33;1.85;;;;;;;2.35;100.00;99040.59;10290227;28;20085;-62
2022/03/08 20:23:25;;;;;;;3.63;1.63;;;;;;;2.26;100.00;99051.81;10286534;28;20086;-60
2022/03/08 20:28:31;;;;;;;2.53;1.75;;;;;;;2.22;100.00;99050.25;10316394;28;20074;-63
2022/03/08 20:33:35;;;;;;;2.35;1.67;;;;;;;2.15;100.00;99049.78;10313599;28;20439;-62
2022/03/08 20:38:40;;;;;;;3.13;1.60;;;;;;;2.17;100.00;99037.25;10313039;28;20058;-63
2022/03/08 20:43:46;;;;;;;2.28;1.80;;;;;;;2.17;100.00;99044.38;10304782;28;20109;-66
2022/03/08 20:48:50;;;;;;;4.32;1.60;;;;;;;2.18;100.00;99048.72;10288200;28;20388;-63
2022/03/08 20:53:53;;;;;;;2.00;1.60;;;;;;;2.13;100.00;99041.91;10297886;28;20038;-62
2022/03/08 20:58:58;;;;;;;2.63;1.60;;;;;;;2.08;100.00;99049.28;10288444;28;20533;-60
2022/03/08 21:04:03;;;;;;;2.42;1.77;;;;;;;2.01;100.00;99047.94;10302748;28;20066;-62
2022/03/08 21:09:07;;;;;;;3.13;2.00;;;;;;;1.94;100.00;99052.78;10310291;28;20410;-62
2022/03/08 21:14:14;;;;;;;2.40;1.77;;;;;;;1.85;100.00;99054.16;10316087;28;20030;-67
2022/03/08 21:19:21;;;;;;;1.63;1.40;;;;;;;1.81;100.00;99046.47;10306278;28;20061;-68
2022/03/08 21:24:30;;;;;;;2.17;1.75;;;;;;;1.71;100.00;99062.09;10314302;28;20532;-65
2022/03/08 21:29:37;;;;;;;2.60;1.73;;;;;;;1.63;100.00;99080.28;10311592;28;20055;-64
2022/03/08 21:34:43;;;;;;;2.45;1.70;;;;;;;1.65;100.00;99075.72;10307409;28;20042;-68
2022/03/08 21:39:50;;;;;;;4.22;1.50;;;;;;;1.63;100.00;99074.97;10306002;28;20034;-65
2022/03/08 21:44:57;;;;;;;1.90;1.70;;;;;;;1.59;100.00;99073.44;10294420;28;20055;-65
2022/03/08 21:50:00;;;;;;;3.33;1.65;;;;;;;1.53;100.00;99070.19;10288834;28;20122;-65
2022/03/08 21:55:07;;;;;;;3.67;1.60;;;;;;;1.55;100.00;99075.41;10291234;28;20503;-65
2022/03/08 22:00:16;;;;;;;1.92;1.38;;;;;;;1.52;100.00;99083.56;10285634;28;20057;-65
2022/03/08 22:05:21;;;;;;;1.92;1.52;;;;;;;1.47;100.00;99080.31;10291978;28;20042;-59
2022/03/08 22:10:26;;;;;;;2.67;1.90;;;;;;;1.46;100.00;99079.47;10290041;28;20050;-59
2022/03/08 22:15:33;;;;;;;1.98;1.60;;;;;;;1.49;100.00;99078.41;10289620;28;20051;-63
2022/03/08 22:20:38;;;;;;;2.92;1.80;;;;;;;1.49;100.00;99084.56;10291765;28;20047;-61
2022/03/08 22:25:43;;;;;;;2.22;1.60;;;;;;;1.52;100.00;99073.78;10287712;28;20077;-62
2022/03/08 22:30:49;;;;;;;2.05;1.63;;;;;;;1.56;100.00;99078.94;10233587;28;1710938;-60
2022/03/08 22:35:56;;;;;;;2.53;1.88;;;;;;;1.53;100.00;99083.47;10295942;28;20051;-62
2022/03/08 22:41:03;;;;;;;2.83;1.73;;;;;;;1.54;100.00;99071.91;10286328;28;20121;-64
2022/03/08 22:46:10;;;;;;;2.83;1.75;;;;;;;1.55;100.00;99078.06;10288595;28;20129;-61
2022/03/08 22:56:40;;;;;;;2.95;1.75;;;;;;;1.52;100.00;99052.53;10285987;28;20117;-64
2022/03/08 23:01:45;;;;;;;1.80;1.60;;;;;;;1.54;100.00;99055.09;10288700;28;20070;-59
2022/03/08 23:06:50;;;;;;;4.32;1.50;;;;;;;1.53;100.00;99050.72;10295003;28;20053;-61
2022/03/08 23:11:54;;;;;;;2.40;1.80;;;;;;;1.49;100.00;99063.31;10317010;28;20054;-63
2022/03/08 23:17:01;;;;;;;2.17;1.90;;;;;;;1.44;100.00;99064.53;10288483;28;20093;-63
2022/03/08 23:22:06;;;;;;;2.80;1.80;;;;;;;1.38;100.00;99066.63;10289639;28;20038;-59
2022/03/08 23:27:09;;;;;;;2.33;1.70;;;;;;;1.37;100.00;99058.72;10284924;28;20547;-62
2022/03/08 23:32:13;;;;;;;2.70;2.00;;;;;;;1.37;100.00;99064.03;10292830;28;20133;-59